sensor_id;sensor_type;location;lat;lon;timestamp;temperature;humidity
40534;DHT22;26233;51.894;10.192;2023-03-12T00:00:23;2.80;48.20
40534;DHT22;26233;51.894;10.192;2023-03-12T00:02:50;2.80;48.20
40534;DHT22;26233;51.894;10.192;2023-03-12T00:05:17;2.80;48.30
40534;DHT22;26233;51.894;10.192;2023-03-12T00:07:44;2.80;48.30
40534;DHT22;26233;51.894;10.192;2023-03-12T00:10:13;2.80;48.20
40534;DHT22;26233;51.894;10.192;2023-03-12T00:12:40;2.80;48.30
40534;DHT22;26233;51.894;10.192;2023-03-12T00:15:08;2.80;48.20
40534;DHT22;26233;51.894;10.192;2023-03-12T00:17:38;2.80;48.30
40534;DHT22;26233;51.894;10.192;2023-03-12T00:20:06;2.70;48.00
40534;DHT22;26233;51.894;10.192;2023-03-12T00:22:33;2.70;48.20
40534;DHT22;26233;51.894;10.192;2023-03-12T00:25:01;2.70;48.40
40534;DHT22;26233;51.894;10.192;2023-03-12T00:27:29;2.70;48.30
40534;DHT22;26233;51.894;10.192;2023-03-12T00:29:57;2.70;48.30
40534;DHT22;26233;51.894;10.192;2023-03-12T00:32:24;2.80;48.30
40534;DHT22;26233;51.894;10.192;2023-03-12T00:34:53;2.70;48.30
40534;DHT22;26233;51.894;10.192;2023-03-12T00:37:22;2.80;48.30
40534;DHT22;26233;51.894;10.192;2023-03-12T00:39:52;2.80;48.10
40534;DHT22;26233;51.894;10.192;2023-03-12T00:42:19;2.80;48.30
40534;DHT22;26233;51.894;10.192;2023-03-12T00:44:48;2.80;48.30
40534;DHT22;26233;51.894;10.192;2023-03-12T00:47:15;2.80;48.40
40534;DHT22;26233;51.894;10.192;2023-03-12T00:49:42;2.80;48.30
40534;DHT22;26233;51.894;10.192;2023-03-12T00:52:09;2.80;48.30
40534;DHT22;26233;51.894;10.192;2023-03-12T00:54:36;2.80;48.20
40534;DHT22;26233;51.894;10.192;2023-03-12T00:57:04;2.90;48.30
40534;DHT22;26233;51.894;10.192;2023-03-12T00:59:34;2.90;48.40
40534;DHT22;26233;51.894;10.192;2023-03-12T01:02:06;2.90;48.40
40534;DHT22;26233;51.894;10.192;2023-03-12T01:04:34;2.90;48.40
40534;DHT22;26233;51.894;10.192;2023-03-12T01:07:01;2.90;48.40
40534;DHT22;26233;51.894;10.192;2023-03-12T01:09:28;3.00;48.30
40534;DHT22;26233;51.894;10.192;2023-03-12T01:11:55;3.00;48.30
40534;DHT22;26233;51.894;10.192;2023-03-12T01:14:22;3.00;48.30
40534;DHT22;26233;51.894;10.192;2023-03-12T01:16:50;3.00;48.40
40534;DHT22;26233;51.894;10.192;2023-03-12T01:19:19;3.00;48.20
40534;DHT22;26233;51.894;10.192;2023-03-12T01:21:46;3.00;48.20
40534;DHT22;26233;51.894;10.192;2023-03-12T01:24:13;3.00;48.20
40534;DHT22;26233;51.894;10.192;2023-03-12T01:26:41;3.00;48.20
40534;DHT22;26233;51.894;10.192;2023-03-12T01:29:08;3.00;48.20
40534;DHT22;26233;51.894;10.192;2023-03-12T01:31:35;3.00;48.10
40534;DHT22;26233;51.894;10.192;2023-03-12T01:34:02;3.00;48.20
40534;DHT22;26233;51.894;10.192;2023-03-12T01:36:30;3.00;48.10
40534;DHT22;26233;51.894;10.192;2023-03-12T01:38:58;3.00;48.10
40534;DHT22;26233;51.894;10.192;2023-03-12T01:41:28;3.00;48.10
40534;DHT22;26233;51.894;10.192;2023-03-12T01:43:57;3.00;48.10
40534;DHT22;26233;51.894;10.192;2023-03-12T01:46:28;3.00;48.20
40534;DHT22;26233;51.894;10.192;2023-03-12T01:49:02;2.90;48.00
40534;DHT22;26233;51.894;10.192;2023-03-12T01:51:36;2.90;47.90
40534;DHT22;26233;51.894;10.192;2023-03-12T01:54:11;2.90;48.00
40534;DHT22;26233;51.894;10.192;2023-03-12T01:56:40;3.00;48.00
40534;DHT22;26233;51.894;10.192;2023-03-12T01:59:12;2.90;47.90
40534;DHT22;26233;51.894;10.192;2023-03-12T02:01:43;3.00;48.00
40534;DHT22;26233;51.894;10.192;2023-03-12T02:04:11;2.90;48.10
40534;DHT22;26233;51.894;10.192;2023-03-12T02:06:44;2.90;47.90
40534;DHT22;26233;51.894;10.192;2023-03-12T02:09:14;2.90;47.90
40534;DHT22;26233;51.894;10.192;2023-03-12T02:11:44;2.90;48.00
40534;DHT22;26233;51.894;10.192;2023-03-12T02:14:11;2.90;47.90
40534;DHT22;26233;51.894;10.192;2023-03-12T02:16:39;2.90;48.00
40534;DHT22;26233;51.894;10.192;2023-03-12T02:19:15;2.80;47.90
40534;DHT22;26233;51.894;10.192;2023-03-12T02:21:48;2.90;47.80
40534;DHT22;26233;51.894;10.192;2023-03-12T02:24:21;2.80;47.90
40534;DHT22;26233;51.894;10.192;2023-03-12T02:26:56;2.80;47.90
40534;DHT22;26233;51.894;10.192;2023-03-12T02:29:24;2.80;47.90
40534;DHT22;26233;51.894;10.192;2023-03-12T02:31:53;2.80;47.90
40534;DHT22;26233;51.894;10.192;2023-03-12T02:34:21;2.80;47.90
40534;DHT22;26233;51.894;10.192;2023-03-12T02:36:48;2.80;48.00
40534;DHT22;26233;51.894;10.192;2023-03-12T02:39:16;2.80;48.00
40534;DHT22;26233;51.894;10.192;2023-03-12T02:41:49;2.80;48.00
40534;DHT22;26233;51.894;10.192;2023-03-12T02:44:21;2.80;48.00
40534;DHT22;26233;51.894;10.192;2023-03-12T02:46:52;2.80;48.00
40534;DHT22;26233;51.894;10.192;2023-03-12T02:49:23;2.80;48.00
40534;DHT22;26233;51.894;10.192;2023-03-12T02:51:52;2.80;48.00
40534;DHT22;26233;51.894;10.192;2023-03-12T02:54:20;2.80;48.00
40534;DHT22;26233;51.894;10.192;2023-03-12T02:56:50;2.80;48.00
40534;DHT22;26233;51.894;10.192;2023-03-12T02:59:20;2.80;48.00
40534;DHT22;26233;51.894;10.192;2023-03-12T03:01:51;2.80;48.00
40534;DHT22;26233;51.894;10.192;2023-03-12T03:04:19;2.80;47.90
40534;DHT22;26233;51.894;10.192;2023-03-12T03:06:48;2.90;48.00
40534;DHT22;26233;51.894;10.192;2023-03-12T03:09:15;2.90;48.20
40534;DHT22;26233;51.894;10.192;2023-03-12T03:11:42;2.90;47.90
40534;DHT22;26233;51.894;10.192;2023-03-12T03:14:09;2.90;48.00
40534;DHT22;26233;51.894;10.192;2023-03-12T03:16:38;2.80;47.90
40534;DHT22;26233;51.894;10.192;2023-03-12T03:19:05;2.90;47.80
40534;DHT22;26233;51.894;10.192;2023-03-12T03:21:33;2.90;48.00
40534;DHT22;26233;51.894;10.192;2023-03-12T03:24:00;2.90;48.00
40534;DHT22;26233;51.894;10.192;2023-03-12T03:26:28;2.90;48.60
40534;DHT22;26233;51.894;10.192;2023-03-12T03:28:55;2.90;48.00
40534;DHT22;26233;51.894;10.192;2023-03-12T03:31:22;2.90;48.00
40534;DHT22;26233;51.894;10.192;2023-03-12T03:33:50;2.90;48.00
40534;DHT22;26233;51.894;10.192;2023-03-12T03:36:18;2.90;48.00
40534;DHT22;26233;51.894;10.192;2023-03-12T03:38:45;2.90;48.00
40534;DHT22;26233;51.894;10.192;2023-03-12T03:41:15;2.90;48.10
40534;DHT22;26233;51.894;10.192;2023-03-12T03:43:42;2.80;47.90
40534;DHT22;26233;51.894;10.192;2023-03-12T03:46:10;2.90;47.90
40534;DHT22;26233;51.894;10.192;2023-03-12T03:48:39;2.80;47.80
40534;DHT22;26233;51.894;10.192;2023-03-12T03:51:09;2.80;47.90
40534;DHT22;26233;51.894;10.192;2023-03-12T03:53:37;2.80;47.80
40534;DHT22;26233;51.894;10.192;2023-03-12T03:56:05;2.80;47.80
40534;DHT22;26233;51.894;10.192;2023-03-12T03:58:33;2.80;47.80
40534;DHT22;26233;51.894;10.192;2023-03-12T04:01:00;2.80;48.00
40534;DHT22;26233;51.894;10.192;2023-03-12T04:03:27;2.80;47.90
40534;DHT22;26233;51.894;10.192;2023-03-12T04:05:55;2.80;47.90
40534;DHT22;26233;51.894;10.192;2023-03-12T04:08:24;2.80;47.90
40534;DHT22;26233;51.894;10.192;2023-03-12T04:10:51;2.80;47.80
40534;DHT22;26233;51.894;10.192;2023-03-12T04:13:19;2.80;47.90
40534;DHT22;26233;51.894;10.192;2023-03-12T04:15:47;2.70;47.80
40534;DHT22;26233;51.894;10.192;2023-03-12T04:18:14;2.70;47.90
40534;DHT22;26233;51.894;10.192;2023-03-12T04:20:42;2.70;47.80
40534;DHT22;26233;51.894;10.192;2023-03-12T04:23:09;2.70;47.90
40534;DHT22;26233;51.894;10.192;2023-03-12T04:25:38;2.70;47.90
40534;DHT22;26233;51.894;10.192;2023-03-12T04:28:05;2.70;47.70
40534;DHT22;26233;51.894;10.192;2023-03-12T04:30:33;2.70;47.70
40534;DHT22;26233;51.894;10.192;2023-03-12T04:33:02;2.70;47.70
40534;DHT22;26233;51.894;10.192;2023-03-12T04:35:29;2.70;47.80
40534;DHT22;26233;51.894;10.192;2023-03-12T04:37:57;2.70;48.00
40534;DHT22;26233;51.894;10.192;2023-03-12T04:40:24;2.70;47.90
40534;DHT22;26233;51.894;10.192;2023-03-12T04:42:52;2.70;47.80
40534;DHT22;26233;51.894;10.192;2023-03-12T04:45:19;2.80;47.90
40534;DHT22;26233;51.894;10.192;2023-03-12T04:47:47;2.80;47.90
40534;DHT22;26233;51.894;10.192;2023-03-12T04:50:14;2.80;48.00
40534;DHT22;26233;51.894;10.192;2023-03-12T04:52:41;2.80;48.00
40534;DHT22;26233;51.894;10.192;2023-03-12T04:55:08;2.80;48.00
40534;DHT22;26233;51.894;10.192;2023-03-12T04:57:35;2.80;48.00
40534;DHT22;26233;51.894;10.192;2023-03-12T05:00:05;2.80;47.90
40534;DHT22;26233;51.894;10.192;2023-03-12T05:02:37;2.80;47.90
40534;DHT22;26233;51.894;10.192;2023-03-12T05:05:05;2.80;48.00
40534;DHT22;26233;51.894;10.192;2023-03-12T05:07:35;2.80;47.90
40534;DHT22;26233;51.894;10.192;2023-03-12T05:10:03;2.80;47.90
40534;DHT22;26233;51.894;10.192;2023-03-12T05:12:31;2.80;47.70
40534;DHT22;26233;51.894;10.192;2023-03-12T05:14:58;2.80;47.90
40534;DHT22;26233;51.894;10.192;2023-03-12T05:17:26;2.80;47.90
40534;DHT22;26233;51.894;10.192;2023-03-12T05:19:54;2.80;47.80
40534;DHT22;26233;51.894;10.192;2023-03-12T05:22:21;2.80;47.90
40534;DHT22;26233;51.894;10.192;2023-03-12T05:24:48;2.80;48.00
40534;DHT22;26233;51.894;10.192;2023-03-12T05:27:18;2.80;47.90
40534;DHT22;26233;51.894;10.192;2023-03-12T05:29:45;2.80;48.00
40534;DHT22;26233;51.894;10.192;2023-03-12T05:32:12;2.80;48.00
40534;DHT22;26233;51.894;10.192;2023-03-12T05:34:40;2.80;48.00
40534;DHT22;26233;51.894;10.192;2023-03-12T05:37:07;2.90;48.70
40534;DHT22;26233;51.894;10.192;2023-03-12T05:39:34;2.90;48.00
40534;DHT22;26233;51.894;10.192;2023-03-12T05:42:02;2.90;48.00
40534;DHT22;26233;51.894;10.192;2023-03-12T05:44:32;2.90;47.70
40534;DHT22;26233;51.894;10.192;2023-03-12T05:46:59;2.90;47.90
40534;DHT22;26233;51.894;10.192;2023-03-12T05:49:27;2.90;47.80
40534;DHT22;26233;51.894;10.192;2023-03-12T05:51:55;3.00;48.50
40534;DHT22;26233;51.894;10.192;2023-03-12T05:54:22;3.00;48.00
40534;DHT22;26233;51.894;10.192;2023-03-12T05:56:49;3.00;47.80
40534;DHT22;26233;51.894;10.192;2023-03-12T05:59:16;3.00;48.00
40534;DHT22;26233;51.894;10.192;2023-03-12T06:01:43;3.00;47.80
40534;DHT22;26233;51.894;10.192;2023-03-12T06:04:10;3.10;48.00
40534;DHT22;26233;51.894;10.192;2023-03-12T06:06:38;3.10;47.90
40534;DHT22;26233;51.894;10.192;2023-03-12T06:09:06;3.10;47.70
40534;DHT22;26233;51.894;10.192;2023-03-12T06:11:33;3.20;48.10
40534;DHT22;26233;51.894;10.192;2023-03-12T06:14:01;3.20;48.10
40534;DHT22;26233;51.894;10.192;2023-03-12T06:16:28;3.30;48.10
40534;DHT22;26233;51.894;10.192;2023-03-12T06:18:57;3.30;48.20
40534;DHT22;26233;51.894;10.192;2023-03-12T06:21:26;3.30;47.80
40534;DHT22;26233;51.894;10.192;2023-03-12T06:23:58;3.40;48.20
40534;DHT22;26233;51.894;10.192;2023-03-12T06:26:27;3.40;47.80
40534;DHT22;26233;51.894;10.192;2023-03-12T06:28:54;3.50;48.10
40534;DHT22;26233;51.894;10.192;2023-03-12T06:31:22;3.50;48.10
40534;DHT22;26233;51.894;10.192;2023-03-12T06:33:50;3.60;48.00
40534;DHT22;26233;51.894;10.192;2023-03-12T06:36:18;3.60;48.00
40534;DHT22;26233;51.894;10.192;2023-03-12T06:38:49;3.70;48.10
40534;DHT22;26233;51.894;10.192;2023-03-12T06:41:19;3.70;48.00
40534;DHT22;26233;51.894;10.192;2023-03-12T06:43:48;3.80;48.10
40534;DHT22;26233;51.894;10.192;2023-03-12T06:46:17;3.80;48.10
40534;DHT22;26233;51.894;10.192;2023-03-12T06:48:46;3.90;48.10
40534;DHT22;26233;51.894;10.192;2023-03-12T06:51:15;3.90;47.70
40534;DHT22;26233;51.894;10.192;2023-03-12T06:53:43;4.00;48.00
40534;DHT22;26233;51.894;10.192;2023-03-12T06:56:13;4.00;48.10
40534;DHT22;26233;51.894;10.192;2023-03-12T06:58:42;4.00;48.10
40534;DHT22;26233;51.894;10.192;2023-03-12T07:01:10;4.10;48.10
40534;DHT22;26233;51.894;10.192;2023-03-12T07:03:37;4.20;48.10
40534;DHT22;26233;51.894;10.192;2023-03-12T07:06:09;4.20;48.10
40534;DHT22;26233;51.894;10.192;2023-03-12T07:08:40;4.30;47.80
40534;DHT22;26233;51.894;10.192;2023-03-12T07:11:08;4.40;48.40
40534;DHT22;26233;51.894;10.192;2023-03-12T07:13:35;4.40;48.10
40534;DHT22;26233;51.894;10.192;2023-03-12T07:16:04;4.50;48.10
40534;DHT22;26233;51.894;10.192;2023-03-12T07:18:33;4.60;47.70
40534;DHT22;26233;51.894;10.192;2023-03-12T07:21:02;4.60;47.80
40534;DHT22;26233;51.894;10.192;2023-03-12T07:23:30;4.70;47.50
40534;DHT22;26233;51.894;10.192;2023-03-12T07:25:59;4.70;47.70
40534;DHT22;26233;51.894;10.192;2023-03-12T07:28:27;4.70;47.80
40534;DHT22;26233;51.894;10.192;2023-03-12T07:30:59;4.70;47.60
40534;DHT22;26233;51.894;10.192;2023-03-12T07:33:26;4.80;47.60
40534;DHT22;26233;51.894;10.192;2023-03-12T07:35:55;4.80;47.60
40534;DHT22;26233;51.894;10.192;2023-03-12T07:38:22;4.80;46.90
40534;DHT22;26233;51.894;10.192;2023-03-12T07:40:50;4.80;47.40
40534;DHT22;26233;51.894;10.192;2023-03-12T07:43:17;4.80;47.20
40534;DHT22;26233;51.894;10.192;2023-03-12T07:45:45;4.80;47.50
40534;DHT22;26233;51.894;10.192;2023-03-12T07:48:12;4.90;47.70
40534;DHT22;26233;51.894;10.192;2023-03-12T07:50:39;4.90;47.50
40534;DHT22;26233;51.894;10.192;2023-03-12T07:53:07;5.00;47.90
40534;DHT22;26233;51.894;10.192;2023-03-12T07:55:34;5.00;47.30
40534;DHT22;26233;51.894;10.192;2023-03-12T07:58:02;5.10;47.80
40534;DHT22;26233;51.894;10.192;2023-03-12T08:00:31;5.10;47.80
40534;DHT22;26233;51.894;10.192;2023-03-12T08:02:58;5.20;47.90
40534;DHT22;26233;51.894;10.192;2023-03-12T08:05:25;5.20;47.80
40534;DHT22;26233;51.894;10.192;2023-03-12T08:07:53;5.30;47.60
40534;DHT22;26233;51.894;10.192;2023-03-12T08:10:21;5.40;47.70
40534;DHT22;26233;51.894;10.192;2023-03-12T08:12:49;5.40;47.60
40534;DHT22;26233;51.894;10.192;2023-03-12T08:15:16;5.50;48.20
40534;DHT22;26233;51.894;10.192;2023-03-12T08:17:43;5.60;48.20
40534;DHT22;26233;51.894;10.192;2023-03-12T08:20:11;5.70;48.30
40534;DHT22;26233;51.894;10.192;2023-03-12T08:22:39;5.80;48.50
40534;DHT22;26233;51.894;10.192;2023-03-12T08:25:08;5.80;48.30
40534;DHT22;26233;51.894;10.192;2023-03-12T08:27:36;6.00;47.90
40534;DHT22;26233;51.894;10.192;2023-03-12T08:30:05;6.10;48.20
40534;DHT22;26233;51.894;10.192;2023-03-12T08:32:33;6.20;47.80
40534;DHT22;26233;51.894;10.192;2023-03-12T08:35:00;6.20;47.70
40534;DHT22;26233;51.894;10.192;2023-03-12T08:37:29;6.30;47.80
40534;DHT22;26233;51.894;10.192;2023-03-12T08:39:59;6.40;47.90
40534;DHT22;26233;51.894;10.192;2023-03-12T08:42:26;6.40;47.70
40534;DHT22;26233;51.894;10.192;2023-03-12T08:44:55;6.50;47.40
40534;DHT22;26233;51.894;10.192;2023-03-12T08:47:22;6.50;47.50
40534;DHT22;26233;51.894;10.192;2023-03-12T08:49:49;6.50;47.20
40534;DHT22;26233;51.894;10.192;2023-03-12T08:52:16;6.50;47.10
40534;DHT22;26233;51.894;10.192;2023-03-12T08:54:43;6.50;46.70
40534;DHT22;26233;51.894;10.192;2023-03-12T08:57:10;6.50;46.90
40534;DHT22;26233;51.894;10.192;2023-03-12T08:59:39;6.50;46.50
40534;DHT22;26233;51.894;10.192;2023-03-12T09:02:10;6.40;46.20
40534;DHT22;26233;51.894;10.192;2023-03-12T09:04:37;6.40;46.70
40534;DHT22;26233;51.894;10.192;2023-03-12T09:07:05;6.40;46.20
40534;DHT22;26233;51.894;10.192;2023-03-12T09:09:32;6.40;46.70
40534;DHT22;26233;51.894;10.192;2023-03-12T09:11:59;6.40;45.70
40534;DHT22;26233;51.894;10.192;2023-03-12T09:14:26;6.40;46.20
40534;DHT22;26233;51.894;10.192;2023-03-12T09:16:53;6.50;46.90
40534;DHT22;26233;51.894;10.192;2023-03-12T09:19:22;6.50;46.40
40534;DHT22;26233;51.894;10.192;2023-03-12T09:21:49;6.40;44.90
40534;DHT22;26233;51.894;10.192;2023-03-12T09:24:16;6.40;45.40
40534;DHT22;26233;51.894;10.192;2023-03-12T09:26:43;6.40;46.00
40534;DHT22;26233;51.894;10.192;2023-03-12T09:29:10;6.40;46.00
40534;DHT22;26233;51.894;10.192;2023-03-12T09:31:37;6.40;46.10
40534;DHT22;26233;51.894;10.192;2023-03-12T09:34:04;6.40;46.20
40534;DHT22;26233;51.894;10.192;2023-03-12T09:36:33;6.40;46.20
40534;DHT22;26233;51.894;10.192;2023-03-12T09:39:02;6.40;46.40
40534;DHT22;26233;51.894;10.192;2023-03-12T09:41:32;6.40;46.20
40534;DHT22;26233;51.894;10.192;2023-03-12T09:44:08;6.50;46.20
40534;DHT22;26233;51.894;10.192;2023-03-12T09:46:40;6.50;46.30
40534;DHT22;26233;51.894;10.192;2023-03-12T09:49:16;6.50;45.60
40534;DHT22;26233;51.894;10.192;2023-03-12T09:51:48;6.40;45.80
40534;DHT22;26233;51.894;10.192;2023-03-12T09:54:23;6.40;45.70
40534;DHT22;26233;51.894;10.192;2023-03-12T09:56:56;6.40;45.80
40534;DHT22;26233;51.894;10.192;2023-03-12T09:59:24;6.40;45.90
40534;DHT22;26233;51.894;10.192;2023-03-12T10:01:54;6.60;46.10
40534;DHT22;26233;51.894;10.192;2023-03-12T10:04:34;6.50;46.30
40534;DHT22;26233;51.894;10.192;2023-03-12T10:07:11;6.50;46.30
40534;DHT22;26233;51.894;10.192;2023-03-12T10:09:59;6.50;46.20
40534;DHT22;26233;51.894;10.192;2023-03-12T10:12:40;6.50;45.80
40534;DHT22;26233;51.894;10.192;2023-03-12T10:15:26;6.50;46.00
40534;DHT22;26233;51.894;10.192;2023-03-12T10:18:05;6.50;46.40
40534;DHT22;26233;51.894;10.192;2023-03-12T10:20:52;6.40;45.90
40534;DHT22;26233;51.894;10.192;2023-03-12T10:23:43;6.30;45.30
40534;DHT22;26233;51.894;10.192;2023-03-12T10:26:22;6.30;46.00
40534;DHT22;26233;51.894;10.192;2023-03-12T10:28:52;6.30;45.90
40534;DHT22;26233;51.894;10.192;2023-03-12T10:31:25;6.30;46.40
40534;DHT22;26233;51.894;10.192;2023-03-12T10:33:56;6.20;46.30
40534;DHT22;26233;51.894;10.192;2023-03-12T10:36:27;6.20;46.40
40534;DHT22;26233;51.894;10.192;2023-03-12T10:39:01;6.10;45.80
40534;DHT22;26233;51.894;10.192;2023-03-12T10:41:30;6.10;46.30
40534;DHT22;26233;51.894;10.192;2023-03-12T10:44:02;6.10;46.30
40534;DHT22;26233;51.894;10.192;2023-03-12T10:46:54;6.00;46.10
40534;DHT22;26233;51.894;10.192;2023-03-12T10:49:28;6.00;46.20
40534;DHT22;26233;51.894;10.192;2023-03-12T10:51:59;5.90;46.40
40534;DHT22;26233;51.894;10.192;2023-03-12T10:54:31;5.80;46.20
40534;DHT22;26233;51.894;10.192;2023-03-12T10:57:00;5.80;46.60
40534;DHT22;26233;51.894;10.192;2023-03-12T10:59:30;5.80;47.10
40534;DHT22;26233;51.894;10.192;2023-03-12T11:01:59;5.90;47.40
40534;DHT22;26233;51.894;10.192;2023-03-12T11:04:28;6.00;47.30
40534;DHT22;26233;51.894;10.192;2023-03-12T11:07:18;6.00;46.80
40534;DHT22;26233;51.894;10.192;2023-03-12T11:10:13;6.10;47.60
40534;DHT22;26233;51.894;10.192;2023-03-12T11:12:57;6.30;48.60
40534;DHT22;26233;51.894;10.192;2023-03-12T11:15:28;6.70;49.80
40534;DHT22;26233;51.894;10.192;2023-03-12T11:18:17;7.00;50.20
40534;DHT22;26233;51.894;10.192;2023-03-12T11:20:51;7.50;50.00
40534;DHT22;26233;51.894;10.192;2023-03-12T11:23:23;7.90;50.80
40534;DHT22;26233;51.894;10.192;2023-03-12T11:25:56;8.20;50.00
40534;DHT22;26233;51.894;10.192;2023-03-12T11:28:31;8.40;49.30
40534;DHT22;26233;51.894;10.192;2023-03-12T11:31:02;8.50;47.90
40534;DHT22;26233;51.894;10.192;2023-03-12T11:33:31;8.50;47.30
40534;DHT22;26233;51.894;10.192;2023-03-12T11:36:11;8.40;47.20
40534;DHT22;26233;51.894;10.192;2023-03-12T11:38:50;8.30;47.00
40534;DHT22;26233;51.894;10.192;2023-03-12T11:41:30;8.10;46.30
40534;DHT22;26233;51.894;10.192;2023-03-12T11:44:19;8.10;46.90
40534;DHT22;26233;51.894;10.192;2023-03-12T11:46:58;7.90;46.70
40534;DHT22;26233;51.894;10.192;2023-03-12T11:49:41;7.80;47.10
40534;DHT22;26233;51.894;10.192;2023-03-12T11:52:22;7.70;46.80
40534;DHT22;26233;51.894;10.192;2023-03-12T11:55:14;7.60;46.80
40534;DHT22;26233;51.894;10.192;2023-03-12T11:57:54;7.50;46.70
40534;DHT22;26233;51.894;10.192;2023-03-12T12:00:32;7.30;46.50
40534;DHT22;26233;51.894;10.192;2023-03-12T12:06:21;7.00;46.90
40534;DHT22;26233;51.894;10.192;2023-03-12T12:09:04;6.80;47.30
40534;DHT22;26233;51.894;10.192;2023-03-12T12:11:54;6.80;47.30
40534;DHT22;26233;51.894;10.192;2023-03-12T12:14:44;6.70;47.10
40534;DHT22;26233;51.894;10.192;2023-03-12T12:17:27;6.60;47.10
40534;DHT22;26233;51.894;10.192;2023-03-12T12:20:18;6.50;47.20
40534;DHT22;26233;51.894;10.192;2023-03-12T12:23:04;6.40;47.30
40534;DHT22;26233;51.894;10.192;2023-03-12T12:25:54;6.30;47.50
40534;DHT22;26233;51.894;10.192;2023-03-12T12:28:40;6.20;47.80
40534;DHT22;26233;51.894;10.192;2023-03-12T12:31:29;6.20;47.90
40534;DHT22;26233;51.894;10.192;2023-03-12T12:34:25;6.20;47.90
40534;DHT22;26233;51.894;10.192;2023-03-12T12:37:15;6.20;47.90
40534;DHT22;26233;51.894;10.192;2023-03-12T12:39:51;6.20;48.00
40534;DHT22;26233;51.894;10.192;2023-03-12T12:42:26;6.10;48.00
40534;DHT22;26233;51.894;10.192;2023-03-12T12:44:57;6.10;47.90
40534;DHT22;26233;51.894;10.192;2023-03-12T12:47:34;6.00;47.80
40534;DHT22;26233;51.894;10.192;2023-03-12T12:50:10;5.90;47.80
40534;DHT22;26233;51.894;10.192;2023-03-12T12:52:40;5.80;47.70
40534;DHT22;26233;51.894;10.192;2023-03-12T12:55:13;5.70;47.90
40534;DHT22;26233;51.894;10.192;2023-03-12T12:57:44;5.70;48.00
40534;DHT22;26233;51.894;10.192;2023-03-12T13:00:39;5.70;48.30
40534;DHT22;26233;51.894;10.192;2023-03-12T13:03:14;5.60;48.00
40534;DHT22;26233;51.894;10.192;2023-03-12T13:05:46;5.60;48.20
40534;DHT22;26233;51.894;10.192;2023-03-12T13:08:35;5.50;48.20
40534;DHT22;26233;51.894;10.192;2023-03-12T13:11:27;5.50;48.40
40534;DHT22;26233;51.894;10.192;2023-03-12T13:14:36;5.50;48.50
40534;DHT22;26233;51.894;10.192;2023-03-12T13:17:07;5.40;48.50
40534;DHT22;26233;51.894;10.192;2023-03-12T13:19:57;5.40;48.70
40534;DHT22;26233;51.894;10.192;2023-03-12T13:22:40;5.40;48.80
40534;DHT22;26233;51.894;10.192;2023-03-12T13:25:27;5.40;48.90
40534;DHT22;26233;51.894;10.192;2023-03-12T13:28:26;5.30;49.00
40534;DHT22;26233;51.894;10.192;2023-03-12T13:31:00;5.30;49.20
40534;DHT22;26233;51.894;10.192;2023-03-12T13:33:42;5.30;49.20
40534;DHT22;26233;51.894;10.192;2023-03-12T13:36:21;5.40;49.50
40534;DHT22;26233;51.894;10.192;2023-03-12T13:38:57;5.40;49.50
40534;DHT22;26233;51.894;10.192;2023-03-12T13:41:31;5.40;49.50
40534;DHT22;26233;51.894;10.192;2023-03-12T13:44:02;5.40;50.20
40534;DHT22;26233;51.894;10.192;2023-03-12T13:46:57;5.30;49.50
40534;DHT22;26233;51.894;10.192;2023-03-12T13:49:26;5.30;49.60
40534;DHT22;26233;51.894;10.192;2023-03-12T13:52:21;5.40;49.70
40534;DHT22;26233;51.894;10.192;2023-03-12T13:54:58;5.30;49.90
40534;DHT22;26233;51.894;10.192;2023-03-12T13:57:35;5.40;50.10
40534;DHT22;26233;51.894;10.192;2023-03-12T14:00:10;5.40;50.20
40534;DHT22;26233;51.894;10.192;2023-03-12T14:02:46;5.40;50.30
40534;DHT22;26233;51.894;10.192;2023-03-12T14:05:15;5.50;50.40
40534;DHT22;26233;51.894;10.192;2023-03-12T14:08:04;5.60;50.50
40534;DHT22;26233;51.894;10.192;2023-03-12T14:10:55;5.60;50.00
40534;DHT22;26233;51.894;10.192;2023-03-12T14:13:48;5.60;50.40
40534;DHT22;26233;51.894;10.192;2023-03-12T14:16:29;5.60;50.40
40534;DHT22;26233;51.894;10.192;2023-03-12T14:18:58;5.70;50.50
40534;DHT22;26233;51.894;10.192;2023-03-12T14:21:31;5.70;50.50
40534;DHT22;26233;51.894;10.192;2023-03-12T14:24:01;5.70;50.60
40534;DHT22;26233;51.894;10.192;2023-03-12T14:26:31;5.70;50.60
40534;DHT22;26233;51.894;10.192;2023-03-12T14:29:01;5.70;50.70
40534;DHT22;26233;51.894;10.192;2023-03-12T14:31:32;5.70;50.70
40534;DHT22;26233;51.894;10.192;2023-03-12T14:34:04;5.60;50.70
40534;DHT22;26233;51.894;10.192;2023-03-12T14:36:38;5.70;50.80
40534;DHT22;26233;51.894;10.192;2023-03-12T14:39:19;5.80;50.90
40534;DHT22;26233;51.894;10.192;2023-03-12T14:41:53;5.70;50.80
40534;DHT22;26233;51.894;10.192;2023-03-12T14:44:23;5.80;50.80
40534;DHT22;26233;51.894;10.192;2023-03-12T14:46:59;5.70;50.90
40534;DHT22;26233;51.894;10.192;2023-03-12T14:49:27;5.70;51.00
40534;DHT22;26233;51.894;10.192;2023-03-12T14:51:55;5.70;51.20
40534;DHT22;26233;51.894;10.192;2023-03-12T14:54:26;5.70;51.30
40534;DHT22;26233;51.894;10.192;2023-03-12T14:56:53;5.70;51.30
40534;DHT22;26233;51.894;10.192;2023-03-12T14:59:26;5.70;51.40
40534;DHT22;26233;51.894;10.192;2023-03-12T15:01:59;5.80;51.70
40534;DHT22;26233;51.894;10.192;2023-03-12T15:04:28;5.80;51.80
40534;DHT22;26233;51.894;10.192;2023-03-12T15:06:56;5.80;51.80
40534;DHT22;26233;51.894;10.192;2023-03-12T15:09:29;5.90;51.80
40534;DHT22;26233;51.894;10.192;2023-03-12T15:11:59;5.90;51.80
40534;DHT22;26233;51.894;10.192;2023-03-12T15:14:31;5.90;51.80
40534;DHT22;26233;51.894;10.192;2023-03-12T15:16:59;5.90;51.80
40534;DHT22;26233;51.894;10.192;2023-03-12T15:19:32;5.90;51.80
40534;DHT22;26233;51.894;10.192;2023-03-12T15:22:01;5.90;51.90
40534;DHT22;26233;51.894;10.192;2023-03-12T15:24:37;5.90;51.90
40534;DHT22;26233;51.894;10.192;2023-03-12T15:27:19;5.90;52.00
40534;DHT22;26233;51.894;10.192;2023-03-12T15:29:54;6.00;52.20
40534;DHT22;26233;51.894;10.192;2023-03-12T15:32:23;6.00;52.20
40534;DHT22;26233;51.894;10.192;2023-03-12T15:34:52;6.00;52.40
40534;DHT22;26233;51.894;10.192;2023-03-12T15:37:22;6.00;52.30
40534;DHT22;26233;51.894;10.192;2023-03-12T15:39:55;6.10;52.50
40534;DHT22;26233;51.894;10.192;2023-03-12T15:42:25;6.00;52.40
40534;DHT22;26233;51.894;10.192;2023-03-12T15:44:54;6.10;52.70
40534;DHT22;26233;51.894;10.192;2023-03-12T15:47:24;6.10;52.80
40534;DHT22;26233;51.894;10.192;2023-03-12T15:49:55;6.10;53.00
40534;DHT22;26233;51.894;10.192;2023-03-12T15:52:29;6.20;53.10
40534;DHT22;26233;51.894;10.192;2023-03-12T15:55:02;6.30;53.20
40534;DHT22;26233;51.894;10.192;2023-03-12T15:57:32;6.30;53.20
40534;DHT22;26233;51.894;10.192;2023-03-12T16:00:19;6.30;53.30